createdAt,value
2023-01-29T00:02:22.317Z,13.97
2023-01-29T00:04:50.169Z,13.30
2023-01-29T00:07:18.091Z,14.71
2023-01-29T00:09:47.352Z,14.55
2023-01-29T00:12:15.169Z,13.69
2023-01-29T00:14:43.075Z,12.95
2023-01-29T00:17:11.095Z,12.64
2023-01-29T00:19:39.010Z,12.45
2023-01-29T00:22:06.880Z,12.26
2023-01-29T00:24:34.859Z,13.29
2023-01-29T00:27:04.217Z,13.40
2023-01-29T00:29:32.112Z,12.97
2023-01-29T00:32:00.197Z,12.87
2023-01-29T00:34:28.229Z,12.54
2023-01-29T00:37:04.916Z,12.41
2023-01-29T00:39:47.436Z,13.10
2023-01-29T00:42:37.105Z,13.08
2023-01-29T00:45:05.587Z,13.30
2023-01-29T00:47:34.391Z,13.22
2023-01-29T00:50:03.658Z,12.94
2023-01-29T00:52:31.723Z,12.84
2023-01-29T00:55:01.658Z,13.53
2023-01-29T00:57:33.587Z,13.00
2023-01-29T01:00:02.142Z,13.57
2023-01-29T01:02:47.932Z,13.41
2023-01-29T01:05:18.882Z,13.10
2023-01-29T01:07:47.866Z,12.83
2023-01-29T01:10:23.146Z,12.90
2023-01-29T01:12:56.601Z,13.90
2023-01-29T01:15:28.591Z,14.30
2023-01-29T01:17:59.331Z,13.55
2023-01-29T01:20:29.362Z,12.61
2023-01-29T01:22:58.227Z,12.78
2023-01-29T01:25:28.403Z,12.64
2023-01-29T01:30:27.800Z,12.16
2023-01-29T01:32:55.725Z,12.55
2023-01-29T01:35:23.672Z,12.78
2023-01-29T01:37:51.506Z,12.50
2023-01-29T01:40:21.389Z,12.59
2023-01-29T01:42:51.122Z,12.92
2023-01-29T01:45:24.362Z,12.92
2023-01-29T01:47:56.970Z,12.28
2023-01-29T01:50:31.115Z,12.80
2023-01-29T01:53:05.871Z,12.97
2023-01-29T01:55:39.024Z,12.71
2023-01-29T01:58:12.808Z,13.16
2023-01-29T02:00:42.066Z,12.95
2023-01-29T02:03:30.619Z,12.95
2023-01-29T02:06:19.025Z,13.05
2023-01-29T02:09:13.970Z,13.04
2023-01-29T02:11:42.176Z,13.64
2023-01-29T02:14:10.682Z,13.37
2023-01-29T02:16:40.385Z,13.35
2023-01-29T02:19:18.196Z,13.79
2023-01-29T02:22:07.891Z,13.32
2023-01-29T02:25:09.579Z,13.74
2023-01-29T02:28:06.546Z,15.12
2023-01-29T02:30:42.334Z,17.27
2023-01-29T02:33:23.259Z,15.08
2023-01-29T02:36:00.255Z,14.22
2023-01-29T02:38:38.317Z,13.62
2023-01-29T02:41:16.192Z,14.25
2023-01-29T02:43:48.563Z,13.65
2023-01-29T02:46:24.825Z,13.58
2023-01-29T02:49:00.983Z,13.26
2023-01-29T02:51:39.919Z,12.71
2023-01-29T02:54:18.055Z,12.68
2023-01-29T02:56:53.282Z,12.60
2023-01-29T02:59:29.450Z,13.65
2023-01-29T03:02:03.880Z,13.40
2023-01-29T03:04:38.604Z,12.97
2023-01-29T03:07:36.477Z,12.37
2023-01-29T03:10:13.297Z,12.31
2023-01-29T03:12:44.081Z,12.48
2023-01-29T03:15:25.127Z,12.30
2023-01-29T03:17:59.144Z,11.97
2023-01-29T03:20:35.531Z,10.90
2023-01-29T03:23:10.411Z,11.64
2023-01-29T03:26:01.459Z,10.92
2023-01-29T03:28:49.010Z,10.37
2023-01-29T03:31:37.493Z,10.32
2023-01-29T03:34:16.352Z,10.43
2023-01-29T03:36:55.799Z,10.73
2023-01-29T03:39:28.591Z,11.54
2023-01-29T03:42:03.635Z,11.47
2023-01-29T03:44:45.856Z,12.65
2023-01-29T03:47:23.547Z,11.48
2023-01-29T03:50:00.929Z,9.71
2023-01-29T03:52:51.011Z,10.25
2023-01-29T03:55:25.850Z,9.43
2023-01-29T03:58:02.083Z,10.18
2023-01-29T04:00:39.009Z,11.42
2023-01-29T04:03:18.790Z,11.79
2023-01-29T04:05:54.597Z,11.24
2023-01-29T04:08:28.796Z,11.31
2023-01-29T04:11:02.927Z,11.23
2023-01-29T04:13:34.585Z,12.30
2023-01-29T04:16:07.439Z,13.22
2023-01-29T04:18:37.759Z,13.27
2023-01-29T04:21:08.187Z,13.44
2023-01-29T04:23:36.114Z,13.11
2023-01-29T04:26:26.140Z,13.27
2023-01-29T04:29:10.658Z,13.25
2023-01-29T04:31:51.075Z,13.00
2023-01-29T04:34:29.483Z,13.70
2023-01-29T04:37:12.586Z,12.53
2023-01-29T04:39:50.199Z,12.97
2023-01-29T04:42:30.913Z,13.00
2023-01-29T04:45:09.042Z,13.05
2023-01-29T04:47:48.287Z,13.23
2023-01-29T04:50:25.207Z,13.91
2023-01-29T04:53:03.500Z,14.12
2023-01-29T04:55:38.979Z,13.44
2023-01-29T04:58:15.324Z,13.98
2023-01-29T05:00:45.551Z,14.07
2023-01-29T05:03:16.443Z,10.67
2023-01-29T05:05:49.687Z,10.85
2023-01-29T05:08:21.457Z,12.76
2023-01-29T05:10:53.609Z,13.70
2023-01-29T05:13:24.834Z,13.80
2023-01-29T05:16:01.653Z,13.48
2023-01-29T05:18:30.776Z,13.83
2023-01-29T05:21:05.963Z,13.57
2023-01-29T05:23:33.778Z,13.93
2023-01-29T05:26:01.868Z,13.61
2023-01-29T05:28:28.745Z,14.20
2023-01-29T05:30:58.187Z,14.18
2023-01-29T05:33:28.362Z,13.46
2023-01-29T05:35:58.030Z,13.80
2023-01-29T05:38:27.749Z,14.12
2023-01-29T05:40:55.605Z,13.12
2023-01-29T05:43:26.157Z,13.61
2023-01-29T05:45:55.292Z,14.39
2023-01-29T05:48:23.931Z,14.12
2023-01-29T05:50:52.284Z,14.14
2023-01-29T05:53:20.451Z,13.80
2023-01-29T05:55:50.475Z,13.48
2023-01-29T05:58:19.713Z,13.95
2023-01-29T06:00:47.639Z,14.09
2023-01-29T06:03:15.641Z,13.77
2023-01-29T06:05:43.594Z,14.07
2023-01-29T06:08:12.042Z,14.49
2023-01-29T06:10:40.096Z,14.09
2023-01-29T06:13:09.344Z,14.23
2023-01-29T06:15:37.174Z,14.78
2023-01-29T06:18:05.203Z,15.42
2023-01-29T06:20:33.077Z,14.59
2023-01-29T06:23:01.333Z,13.86
2023-01-29T06:25:29.205Z,14.37
2023-01-29T06:27:59.400Z,14.56
2023-01-29T06:30:29.213Z,15.76
2023-01-29T06:32:58.783Z,21.06
2023-01-29T06:35:27.174Z,26.20
2023-01-29T06:37:55.111Z,22.55
2023-01-29T06:40:22.995Z,18.42
2023-01-29T06:42:50.854Z,17.73
2023-01-29T06:45:18.778Z,17.98
2023-01-29T06:47:47.993Z,16.07
2023-01-29T06:50:16.093Z,16.64
2023-01-29T06:52:44.156Z,16.62
2023-01-29T06:55:12.122Z,17.12
2023-01-29T06:57:39.941Z,18.85
2023-01-29T07:00:09.892Z,19.25
2023-01-29T07:02:37.728Z,16.77
2023-01-29T07:05:07.481Z,17.50
2023-01-29T07:07:36.776Z,16.53
2023-01-29T07:10:05.204Z,16.21
2023-01-29T07:12:33.085Z,16.99
2023-01-29T07:15:00.936Z,17.41
2023-01-29T07:17:28.793Z,17.34
2023-01-29T07:19:56.613Z,18.43
2023-01-29T07:22:25.860Z,17.83
2023-01-29T07:24:53.713Z,16.67
2023-01-29T07:27:21.530Z,16.66
2023-01-29T07:29:49.441Z,18.21
2023-01-29T07:32:17.312Z,17.65
2023-01-29T07:34:45.192Z,17.70
2023-01-29T07:37:13.019Z,17.39
2023-01-29T07:39:42.316Z,17.66
2023-01-29T07:42:10.156Z,17.90
2023-01-29T07:44:37.985Z,17.56
2023-01-29T07:47:05.967Z,17.02
2023-01-29T07:49:33.835Z,17.76
2023-01-29T07:52:01.684Z,18.35
2023-01-29T07:54:29.551Z,17.99
2023-01-29T07:56:58.811Z,18.01
2023-01-29T07:59:26.675Z,17.64
2023-01-29T08:01:54.684Z,17.99
2023-01-29T08:04:22.794Z,18.14
2023-01-29T08:06:50.639Z,18.39
2023-01-29T08:09:18.533Z,18.52
2023-01-29T08:11:46.438Z,18.34
2023-01-29T08:14:16.143Z,18.73
2023-01-29T08:16:44.047Z,20.33
2023-01-29T08:19:11.952Z,18.48
2023-01-29T08:21:39.787Z,18.84
2023-01-29T08:24:08.266Z,17.60
2023-01-29T08:26:36.162Z,18.07
2023-01-29T08:29:04.190Z,18.29
2023-01-29T08:31:33.586Z,18.64
2023-01-29T08:34:01.531Z,18.59
2023-01-29T08:36:29.472Z,19.44
2023-01-29T08:38:57.335Z,20.10
2023-01-29T08:41:25.358Z,18.94
2023-01-29T08:43:53.216Z,17.77
2023-01-29T08:46:21.187Z,18.31
2023-01-29T08:48:50.462Z,19.01
2023-01-29T08:51:18.627Z,18.74
2023-01-29T08:53:46.477Z,19.69
2023-01-29T08:56:16.289Z,18.39
2023-01-29T08:58:44.360Z,18.48
2023-01-29T09:01:14.417Z,18.66
2023-01-29T09:03:43.836Z,18.72
2023-01-29T09:06:18.270Z,19.47
2023-01-29T09:08:46.191Z,18.99
2023-01-29T09:11:14.144Z,19.51
2023-01-29T09:13:41.994Z,19.22
2023-01-29T09:16:11.170Z,18.78
2023-01-29T09:18:39.106Z,19.71
2023-01-29T09:21:07.054Z,18.28
2023-01-29T09:23:36.287Z,17.48
2023-01-29T09:26:04.251Z,18.10
2023-01-29T09:28:32.119Z,18.54
2023-01-29T09:31:02.251Z,19.31
2023-01-29T09:33:30.959Z,19.26
2023-01-29T09:35:59.042Z,18.35
2023-01-29T09:38:26.980Z,19.00
2023-01-29T09:41:07.372Z,19.17
2023-01-29T09:43:46.333Z,17.81
2023-01-29T09:46:22.185Z,18.07
2023-01-29T09:49:05.267Z,21.04
2023-01-29T09:51:41.163Z,18.75
2023-01-29T09:54:19.600Z,18.70
2023-01-29T09:56:53.881Z,20.89
2023-01-29T09:59:24.344Z,19.78
2023-01-29T10:02:07.113Z,19.45
2023-01-29T10:05:03.039Z,20.45
2023-01-29T10:08:17.705Z,20.14
2023-01-29T10:10:52.138Z,18.11
2023-01-29T10:13:33.867Z,16.80
2023-01-29T10:16:19.702Z,16.26
2023-01-29T10:19:07.968Z,15.90
2023-01-29T10:22:01.610Z,17.18
2023-01-29T10:24:38.874Z,16.46
2023-01-29T10:27:16.793Z,16.07
2023-01-29T10:29:50.068Z,17.18
2023-01-29T10:32:22.058Z,17.94
2023-01-29T10:34:57.326Z,19.75
2023-01-29T10:37:36.264Z,16.80
2023-01-29T10:40:19.859Z,17.92
2023-01-29T10:42:57.843Z,19.15
2023-01-29T10:45:42.199Z,19.90
2023-01-29T10:48:49.645Z,23.28
2023-01-29T10:51:41.995Z,19.08
2023-01-29T10:54:30.464Z,20.69
2023-01-29T10:57:10.851Z,17.86
2023-01-29T10:59:57.100Z,17.55
2023-01-29T11:02:26.449Z,18.10
2023-01-29T11:04:54.401Z,17.06
2023-01-29T11:07:24.076Z,17.19
2023-01-29T11:10:01.690Z,17.01
2023-01-29T11:12:33.605Z,17.74
2023-01-29T11:15:08.083Z,17.52
2023-01-29T11:17:37.397Z,16.97
2023-01-29T11:20:26.528Z,17.00
2023-01-29T11:22:56.721Z,17.10
2023-01-29T11:25:24.973Z,17.82
2023-01-29T11:27:56.322Z,17.57
2023-01-29T11:30:28.338Z,16.74
2023-01-29T11:33:09.038Z,17.91
2023-01-29T11:35:38.054Z,17.20
2023-01-29T11:38:19.394Z,17.02
2023-01-29T11:40:48.191Z,15.97
2023-01-29T11:43:30.261Z,17.43
2023-01-29T11:46:02.880Z,18.79
2023-01-29T11:48:44.344Z,18.50
2023-01-29T11:51:22.330Z,17.26
2023-01-29T11:53:56.042Z,17.38
2023-01-29T11:56:30.323Z,18.41
2023-01-29T11:59:00.118Z,17.43
2023-01-29T12:01:35.262Z,16.66
2023-01-29T12:04:17.523Z,17.28
2023-01-29T12:06:51.883Z,16.74
2023-01-29T12:09:24.706Z,17.65
2023-01-29T12:11:53.001Z,17.36
2023-01-29T12:14:30.198Z,16.96
2023-01-29T12:17:05.589Z,19.24
2023-01-29T12:19:43.297Z,19.41
2023-01-29T12:22:21.572Z,16.97
2023-01-29T12:24:58.609Z,16.49
2023-01-29T12:27:33.054Z,17.31
2023-01-29T12:30:13.695Z,18.40
2023-01-29T12:32:50.913Z,21.38
2023-01-29T12:35:27.307Z,19.21
2023-01-29T12:38:02.449Z,17.13
2023-01-29T12:40:35.638Z,17.50
2023-01-29T12:43:14.335Z,18.69
2023-01-29T12:45:44.553Z,17.32
2023-01-29T12:48:18.950Z,17.22
2023-01-29T12:50:52.219Z,20.20
2023-01-29T12:53:29.503Z,20.66
2023-01-29T12:56:04.131Z,16.83
2023-01-29T12:58:39.153Z,16.59
2023-01-29T13:01:15.986Z,16.78
2023-01-29T13:03:53.093Z,16.95
2023-01-29T13:06:30.366Z,17.30
2023-01-29T13:09:03.936Z,17.68
2023-01-29T13:11:40.629Z,18.14
2023-01-29T13:14:20.101Z,21.52
2023-01-29T13:16:53.785Z,21.45
2023-01-29T13:19:32.551Z,17.90
2023-01-29T13:22:06.421Z,17.99
2023-01-29T13:24:40.842Z,19.52
2023-01-29T13:27:25.049Z,18.82
2023-01-29T13:29:54.466Z,15.54
2023-01-29T13:32:27.112Z,15.11
2023-01-29T13:34:58.957Z,16.29
2023-01-29T13:37:34.743Z,16.44
2023-01-29T13:40:06.401Z,16.87
2023-01-29T13:42:43.627Z,16.13
2023-01-29T13:45:23.551Z,16.30
2023-01-29T13:47:53.779Z,15.95
2023-01-29T13:50:38.422Z,16.09
2023-01-29T13:53:21.344Z,16.25
2023-01-29T13:55:49.268Z,16.38
2023-01-29T13:58:19.015Z,17.08
2023-01-29T14:00:51.592Z,18.43
2023-01-29T14:04:02.252Z,16.32
2023-01-29T14:06:51.424Z,16.91
2023-01-29T14:10:05.180Z,16.79
2023-01-29T14:12:45.650Z,16.98
2023-01-29T14:15:23.446Z,16.92
2023-01-29T14:18:26.225Z,17.44
2023-01-29T14:21:04.391Z,18.41
2023-01-29T14:23:41.358Z,17.53
2023-01-29T14:26:31.032Z,18.42
2023-01-29T14:29:04.218Z,18.03
2023-01-29T14:31:43.125Z,17.64
2023-01-29T14:34:28.067Z,18.20
2023-01-29T14:36:59.870Z,17.33
2023-01-29T14:39:39.124Z,17.99
2023-01-29T14:42:27.013Z,17.46
2023-01-29T14:45:09.213Z,17.65
2023-01-29T14:47:57.599Z,17.76
2023-01-29T14:50:49.423Z,18.44
2023-01-29T14:53:32.874Z,18.08
2023-01-29T14:56:05.265Z,18.68
2023-01-29T14:58:43.492Z,18.57
2023-01-29T15:01:21.975Z,19.87
2023-01-29T15:03:53.364Z,20.66
2023-01-29T15:06:35.240Z,18.87
2023-01-29T15:09:14.135Z,19.53
2023-01-29T15:11:52.346Z,19.09
2023-01-29T15:14:32.665Z,20.57
2023-01-29T15:17:18.629Z,22.82
2023-01-29T15:19:49.379Z,31.74
2023-01-29T15:22:19.998Z,27.45
2023-01-29T15:25:02.629Z,29.08
2023-01-29T15:27:30.913Z,23.25
2023-01-29T15:30:03.385Z,23.09
2023-01-29T15:32:36.411Z,21.30
2023-01-29T15:35:10.568Z,20.79
2023-01-29T15:37:39.076Z,22.40
2023-01-29T15:40:16.530Z,23.84
2023-01-29T15:42:48.533Z,24.48
2023-01-29T15:45:27.408Z,21.50
2023-01-29T15:48:02.298Z,18.68
2023-01-29T15:50:33.888Z,22.46
2023-01-29T15:53:07.718Z,22.21
2023-01-29T15:55:37.255Z,20.90
2023-01-29T15:58:05.834Z,20.76
2023-01-29T16:00:35.382Z,21.02
2023-01-29T16:03:15.343Z,22.32
2023-01-29T16:05:43.794Z,23.82
2023-01-29T16:08:16.091Z,24.89
2023-01-29T16:10:45.911Z,23.38
2023-01-29T16:13:22.253Z,23.33
2023-01-29T16:16:00.665Z,26.20
2023-01-29T16:18:33.958Z,25.56
2023-01-29T16:21:09.979Z,27.98
2023-01-29T16:23:44.499Z,30.08
2023-01-29T16:26:19.007Z,31.46
2023-01-29T16:28:48.784Z,33.33
2023-01-29T16:31:27.369Z,29.00
2023-01-29T16:33:57.610Z,28.88
2023-01-29T16:36:28.884Z,30.98
2023-01-29T16:39:02.022Z,34.97
2023-01-29T16:41:32.682Z,31.01
2023-01-29T16:44:03.776Z,30.06
2023-01-29T16:46:37.162Z,32.93
2023-01-29T16:49:49.749Z,31.12
2023-01-29T16:52:21.495Z,34.38
2023-01-29T16:54:49.420Z,37.80
2023-01-29T16:57:22.607Z,36.20
2023-01-29T16:59:55.462Z,37.92
2023-01-29T17:02:29.437Z,40.23
2023-01-29T17:05:02.808Z,41.40
2023-01-29T17:07:33.796Z,39.70
2023-01-29T17:10:05.482Z,40.82
2023-01-29T17:12:36.806Z,40.02
2023-01-29T17:15:35.110Z,40.51
2023-01-29T17:18:05.011Z,39.03
2023-01-29T17:20:33.285Z,37.13
2023-01-29T17:23:01.213Z,40.00
2023-01-29T17:25:30.389Z,40.72
2023-01-29T17:28:02.274Z,41.13
2023-01-29T17:30:34.921Z,41.18
2023-01-29T17:33:12.722Z,42.80
2023-01-29T17:35:42.196Z,44.74
2023-01-29T17:38:24.998Z,45.97
2023-01-29T17:40:59.507Z,48.13
2023-01-29T17:43:27.710Z,50.22
2023-01-29T17:45:55.834Z,50.25
2023-01-29T17:48:27.464Z,48.94
2023-01-29T17:50:57.757Z,45.62
2023-01-29T17:53:30.475Z,38.04
2023-01-29T17:56:04.487Z,30.80
2023-01-29T17:58:32.500Z,28.08
2023-01-29T18:01:00.426Z,27.43
2023-01-29T18:03:30.142Z,27.90
2023-01-29T18:05:58.111Z,27.60
2023-01-29T18:08:31.191Z,26.98
2023-01-29T18:10:59.193Z,28.17
2023-01-29T18:13:27.239Z,28.07
2023-01-29T18:15:55.708Z,28.11
2023-01-29T18:18:25.168Z,27.24
2023-01-29T18:20:54.373Z,27.30
2023-01-29T18:23:22.425Z,26.70
2023-01-29T18:25:50.356Z,28.93
2023-01-29T18:28:18.949Z,29.46
2023-01-29T18:30:47.705Z,29.92
2023-01-29T18:33:17.069Z,31.01
2023-01-29T18:35:45.392Z,31.38
2023-01-29T18:38:14.753Z,31.56
2023-01-29T18:40:42.629Z,31.03
2023-01-29T18:43:10.855Z,29.46
2023-01-29T18:45:38.777Z,29.25
2023-01-29T18:48:07.243Z,29.29
2023-01-29T18:50:35.584Z,29.93
2023-01-29T18:53:04.332Z,30.79
2023-01-29T18:55:33.920Z,31.07
2023-01-29T18:58:28.176Z,30.45
2023-01-29T19:00:50.020Z,31.07
2023-01-29T19:03:18.642Z,29.19
2023-01-29T19:05:46.589Z,29.46
2023-01-29T19:08:14.669Z,29.35
2023-01-29T19:10:43.983Z,28.31
2023-01-29T19:13:11.845Z,29.75
2023-01-29T19:15:42.933Z,30.11
2023-01-29T19:18:12.555Z,31.06
2023-01-29T19:20:42.951Z,29.17
2023-01-29T19:23:10.945Z,30.09
2023-01-29T19:25:39.283Z,31.10
2023-01-29T19:28:09.017Z,32.74
2023-01-29T19:30:37.067Z,33.78
2023-01-29T19:33:05.407Z,36.34
2023-01-29T19:35:34.028Z,37.90
2023-01-29T19:38:02.087Z,39.88
2023-01-29T19:40:30.036Z,40.20
2023-01-29T19:42:58.443Z,40.48
2023-01-29T19:45:49.610Z,40.06
2023-01-29T19:48:20.340Z,43.34
2023-01-29T19:50:53.105Z,40.62
2023-01-29T19:53:21.055Z,38.61
2023-01-29T19:55:49.347Z,37.97
2023-01-29T19:58:17.262Z,36.22
2023-01-29T20:00:46.614Z,36.03
2023-01-29T20:03:14.545Z,35.31
2023-01-29T20:05:42.440Z,34.26
2023-01-29T20:08:10.327Z,34.36
2023-01-29T20:10:39.339Z,34.84
2023-01-29T20:13:07.279Z,36.24
2023-01-29T20:15:35.208Z,37.73
2023-01-29T20:18:05.561Z,38.73
2023-01-29T20:20:33.442Z,38.07
2023-01-29T20:23:01.481Z,38.28
2023-01-29T20:25:29.826Z,36.24
2023-01-29T20:27:57.656Z,34.18
2023-01-29T20:30:25.560Z,32.62
2023-01-29T20:32:53.517Z,31.89
2023-01-29T20:35:22.845Z,31.69
2023-01-29T20:37:50.766Z,31.72
2023-01-29T20:40:19.195Z,31.34
2023-01-29T20:42:47.369Z,31.01
2023-01-29T20:45:16.304Z,31.86
2023-01-29T20:47:44.893Z,32.47
2023-01-29T20:50:15.423Z,32.43
2023-01-29T20:52:44.868Z,30.61
2023-01-29T20:55:14.123Z,29.67
2023-01-29T20:57:42.219Z,29.47
2023-01-29T21:00:12.816Z,28.92
2023-01-29T21:02:40.977Z,28.14
2023-01-29T21:05:09.115Z,27.76
2023-01-29T21:07:37.214Z,28.17
2023-01-29T21:10:07.565Z,26.70
2023-01-29T21:12:35.533Z,27.43
2023-01-29T21:15:03.570Z,29.01
2023-01-29T21:17:31.407Z,31.13
2023-01-29T21:19:59.296Z,30.39
2023-01-29T21:22:27.119Z,29.31
2023-01-29T21:24:54.972Z,29.09
2023-01-29T21:27:25.437Z,30.35
2023-01-29T21:29:53.330Z,32.35
2023-01-29T21:32:21.296Z,31.56
2023-01-29T21:35:01.818Z,29.32
2023-01-29T21:37:30.265Z,26.83
2023-01-29T21:39:58.173Z,25.92
2023-01-29T21:42:47.128Z,26.33
2023-01-29T21:45:15.126Z,27.32
2023-01-29T21:47:42.988Z,25.54
2023-01-29T21:50:11.984Z,25.58
2023-01-29T21:52:39.856Z,24.92
2023-01-29T21:55:08.376Z,24.03
2023-01-29T21:57:37.717Z,24.13
2023-01-29T22:00:06.831Z,24.04
2023-01-29T22:02:34.777Z,23.22
2023-01-29T22:05:17.628Z,23.54
2023-01-29T22:07:47.023Z,23.67
2023-01-29T22:10:15.474Z,23.24
2023-01-29T22:12:45.079Z,24.43
2023-01-29T22:15:14.069Z,24.33
2023-01-29T22:17:42.774Z,24.30
2023-01-29T22:20:12.986Z,23.44
2023-01-29T22:22:41.099Z,23.88
2023-01-29T22:25:09.996Z,23.59
2023-01-29T22:27:38.354Z,23.71
2023-01-29T22:30:09.279Z,25.32
2023-01-29T22:32:37.369Z,24.82
2023-01-29T22:35:05.869Z,24.34
2023-01-29T22:37:33.776Z,25.09
2023-01-29T22:40:01.707Z,24.72
2023-01-29T22:42:29.575Z,24.15
2023-01-29T22:44:57.426Z,24.37
2023-01-29T22:47:26.900Z,23.67
2023-01-29T22:49:54.852Z,23.79
2023-01-29T22:52:23.035Z,23.63
2023-01-29T22:54:51.930Z,24.41
2023-01-29T22:57:20.393Z,25.49
2023-01-29T22:59:48.294Z,25.70
2023-01-29T23:02:16.539Z,25.47
2023-01-29T23:04:45.877Z,25.67
2023-01-29T23:07:13.896Z,27.12
2023-01-29T23:09:41.761Z,26.17
2023-01-29T23:12:09.722Z,25.77
2023-01-29T23:14:37.620Z,25.15
2023-01-29T23:17:05.495Z,24.36
2023-01-29T23:19:33.447Z,24.68
2023-01-29T23:22:03.167Z,24.73
2023-01-29T23:24:31.081Z,24.74
2023-01-29T23:27:16.088Z,25.05
2023-01-29T23:29:45.303Z,25.49
2023-01-29T23:32:16.886Z,24.96
2023-01-29T23:34:44.827Z,25.49
2023-01-29T23:37:14.446Z,25.27
2023-01-29T23:39:42.331Z,25.06
2023-01-29T23:42:10.210Z,25.28
2023-01-29T23:44:38.043Z,25.02
2023-01-29T23:47:05.988Z,24.65
2023-01-29T23:49:34.004Z,24.32
2023-01-29T23:52:01.928Z,24.60
2023-01-29T23:54:31.154Z,23.43
2023-01-29T23:56:59.032Z,24.09
2023-01-29T23:59:28.232Z,23.90
